Time;durP1;ratioP1;P1;durP2;ratioP2;P2;SDS_P1;SDS_P2;PMS_P1;PMS_P2;Temp;Humidity;BMP_temperature;BMP_pressure;BME280_temperature;BME280_humidity;BME280_pressure;Samples;Min_cycle;Max_cycle;Signal;HPM_P1;HPM_P2
2022/12/12 00:01:21;;;;;;;16.83;9.57;;;;;;;;;;6225568;28;20073;-73
2022/12/12 00:04:23;;;;;;;15.55;10.30;;;;;;;;;;6248466;28;20049;-73
2022/12/12 00:07:24;;;;;;;16.80;10.45;;;;;;;;;;6243421;28;20330;-72
2022/12/12 00:10:27;;;;;;;19.17;10.75;;;;;;;;;;6246856;28;20103;-73
2022/12/12 00:13:29;;;;;;;20.65;11.07;;;;;;;;;;6245890;28;20099;-72
2022/12/12 00:16:31;;;;;;;16.85;10.73;;;;;;;;;;6245087;28;20063;-73
2022/12/12 00:19:33;;;;;;;18.88;11.25;;;;;;;;;;6243849;28;20690;-72
2022/12/12 00:22:34;;;;;;;17.50;10.30;;;;;;;;;;6246410;28;20053;-73
2022/12/12 00:25:38;;;;;;;18.58;11.30;;;;;;;;;;6244029;28;20055;-72
2022/12/12 00:28:39;;;;;;;17.88;11.27;;;;;;;;;;6246907;28;20158;-73
2022/12/12 00:31:41;;;;;;;19.75;11.20;;;;;;;;;;6242813;28;20176;-73
2022/12/12 00:34:42;;;;;;;16.42;9.98;;;;;;;;;;6243643;28;20046;-72
2022/12/12 00:37:44;;;;;;;15.52;10.07;;;;;;;;;;6241911;28;20049;-72
2022/12/12 00:40:48;;;;;;;20.15;11.05;;;;;;;;;;6242603;28;20123;-73
2022/12/12 00:43:50;;;;;;;16.87;10.33;;;;;;;;;;6243454;28;20233;-73
2022/12/12 00:46:51;;;;;;;14.93;9.68;;;;;;;;;;6242249;28;20337;-71
2022/12/12 00:49:53;;;;;;;17.65;11.35;;;;;;;;;;6244362;28;20375;-73
2022/12/12 00:52:56;;;;;;;16.73;10.77;;;;;;;;;;6242039;28;20065;-72
2022/12/12 00:55:59;;;;;;;18.15;10.05;;;;;;;;;;6240912;28;20060;-73
2022/12/12 00:59:02;;;;;;;17.50;10.73;;;;;;;;;;6243863;28;20041;-72
2022/12/12 01:02:04;;;;;;;16.90;10.25;;;;;;;;;;6241382;28;20054;-72
2022/12/12 01:05:07;;;;;;;17.83;10.48;;;;;;;;;;6241826;28;20055;-72
2022/12/12 01:08:08;;;;;;;17.08;10.27;;;;;;;;;;6243380;28;20096;-72
2022/12/12 01:11:13;;;;;;;17.33;9.25;;;;;;;;;;6247373;28;20058;-72
2022/12/12 01:14:14;;;;;;;;;;;;;;;;;;6246861;28;20049;-71
2022/12/12 01:17:16;;;;;;;16.20;9.57;;;;;;;;;;6242692;28;19924;-72
2022/12/12 01:20:20;;;;;;;17.33;9.90;;;;;;;;;;6243523;28;20053;-72
2022/12/12 01:23:22;;;;;;;17.10;10.35;;;;;;;;;;6243748;28;20076;-72
2022/12/12 01:26:25;;;;;;;17.67;10.07;;;;;;;;;;6241680;28;20348;-71
2022/12/12 01:29:28;;;;;;;17.73;9.98;;;;;;;;;;6242550;28;20057;-72
2022/12/12 01:32:29;;;;;;;18.02;9.65;;;;;;;;;;6238187;28;20113;-72
2022/12/12 01:35:32;;;;;;;16.98;9.70;;;;;;;;;;6237782;28;20060;-72
2022/12/12 01:38:34;;;;;;;16.33;9.40;;;;;;;;;;6244534;28;20314;-72
2022/12/12 01:41:37;;;;;;;16.13;9.88;;;;;;;;;;6240322;28;20124;-72
2022/12/12 01:44:42;;;;;;;17.83;10.38;;;;;;;;;;6244404;28;20076;-73
2022/12/12 01:47:44;;;;;;;16.50;10.00;;;;;;;;;;6245301;28;20296;-74
2022/12/12 01:50:46;;;;;;;15.15;9.82;;;;;;;;;;6240373;28;20061;-73
2022/12/12 01:53:49;;;;;;;18.40;9.93;;;;;;;;;;6243830;28;20065;-72
2022/12/12 01:56:53;;;;;;;21.48;9.63;;;;;;;;;;6241771;28;20058;-73
2022/12/12 01:59:55;;;;;;;18.60;10.48;;;;;;;;;;6245394;28;20085;-71
2022/12/12 02:02:57;;;;;;;16.95;9.48;;;;;;;;;;6243825;28;20058;-73
2022/12/12 02:06:03;;;;;;;17.08;9.80;;;;;;;;;;6242359;28;20057;-73
2022/12/12 02:09:08;;;;;;;19.20;9.80;;;;;;;;;;6239056;28;20110;-76
2022/12/12 02:12:14;;;;;;;18.05;10.40;;;;;;;;;;6240521;28;20096;-75
2022/12/12 02:15:16;;;;;;;19.05;9.93;;;;;;;;;;6245656;28;20056;-74
2022/12/12 02:18:22;;;;;;;20.13;10.60;;;;;;;;;;6246000;28;20045;-73
2022/12/12 02:21:26;;;;;;;18.75;10.43;;;;;;;;;;6244516;28;20046;-73
2022/12/12 02:24:54;;;;;;;17.13;9.88;;;;;;;;;;6242669;28;20050;-74
2022/12/12 02:28:29;;;;;;;18.30;9.82;;;;;;;;;;6243927;28;20056;-73
2022/12/12 02:31:35;;;;;;;19.75;9.95;;;;;;;;;;6238752;28;20037;-74
2022/12/12 02:34:44;;;;;;;17.88;9.52;;;;;;;;;;6247380;28;20049;-73
2022/12/12 02:37:50;;;;;;;19.02;11.52;;;;;;;;;;6248227;28;20061;-73
2022/12/12 02:40:58;;;;;;;17.90;10.93;;;;;;;;;;6248372;28;20072;-74
2022/12/12 02:44:08;;;;;;;17.00;10.05;;;;;;;;;;6244385;28;20050;-73
2022/12/12 02:47:14;;;;;;;18.75;9.80;;;;;;;;;;6246087;28;20053;-74
2022/12/12 02:50:19;;;;;;;17.15;9.27;;;;;;;;;;6247509;28;20053;-72
2022/12/12 02:53:23;;;;;;;19.20;10.02;;;;;;;;;;6248661;28;20109;-72
2022/12/12 02:56:46;;;;;;;14.85;7.53;;;;;;;;;;6243833;28;20053;-72
2022/12/12 02:59:51;;;;;;;17.27;10.05;;;;;;;;;;6243749;28;20096;-74
2022/12/12 03:10:00;;;;;;;22.35;11.35;;;;;;;;;;6244056;28;20062;-74
2022/12/12 03:13:08;;;;;;;17.80;11.30;;;;;;;;;;6240720;28;20116;-73
2022/12/12 03:16:20;;;;;;;18.13;10.45;;;;;;;;;;6235825;28;20125;-74
2022/12/12 03:19:26;;;;;;;19.65;10.43;;;;;;;;;;6244552;28;20053;-72
2022/12/12 03:22:32;;;;;;;18.38;10.70;;;;;;;;;;6242303;28;20053;-74
2022/12/12 03:25:38;;;;;;;17.73;10.48;;;;;;;;;;6245445;28;20057;-74
2022/12/12 03:28:44;;;;;;;17.08;9.82;;;;;;;;;;6245727;28;20057;-73
2022/12/12 03:31:49;;;;;;;18.98;10.07;;;;;;;;;;6246217;28;20080;-72
2022/12/12 03:34:57;;;;;;;16.25;9.77;;;;;;;;;;6246195;28;20402;-73
2022/12/12 03:38:02;;;;;;;18.15;9.88;;;;;;;;;;6245222;28;20061;-73
2022/12/12 03:41:06;;;;;;;18.23;9.90;;;;;;;;;;6245189;28;20053;-72
2022/12/12 03:44:12;;;;;;;18.83;9.75;;;;;;;;;;6246213;28;20329;-72
2022/12/12 03:47:17;;;;;;;17.85;10.38;;;;;;;;;;6245275;28;20053;-72
2022/12/12 03:50:22;;;;;;;19.38;10.60;;;;;;;;;;6244406;28;20065;-73
2022/12/12 03:53:29;;;;;;;17.00;9.30;;;;;;;;;;6247151;28;20059;-74
2022/12/12 03:56:31;;;;;;;15.23;9.98;;;;;;;;;;6245301;28;20060;-74
2022/12/12 03:59:35;;;;;;;17.27;9.43;;;;;;;;;;6246336;28;20041;-74
2022/12/12 04:02:39;;;;;;;16.27;9.55;;;;;;;;;;6245115;28;20056;-74
2022/12/12 04:06:25;;;;;;;;;;;;;;;;;;6245773;28;20053;-72
2022/12/12 04:15:58;;;;;;;17.88;10.30;;;;;;;;;;6244557;28;20341;-72
2022/12/12 04:19:03;;;;;;;19.85;9.85;;;;;;;;;;6245464;28;20056;-72
2022/12/12 04:25:33;;;;;;;19.45;10.48;;;;;;;;;;6243207;28;20065;-71
2022/12/12 04:28:36;;;;;;;22.75;11.77;;;;;;;;;;6246756;28;20340;-74
2022/12/12 04:31:43;;;;;;;21.13;11.40;;;;;;;;;;6244360;28;20088;-72
2022/12/12 04:34:48;;;;;;;21.77;10.80;;;;;;;;;;6244640;28;20282;-71
2022/12/12 04:37:54;;;;;;;24.02;11.98;;;;;;;;;;6244867;28;20550;-72
2022/12/12 04:40:57;;;;;;;19.35;11.40;;;;;;;;;;6247316;28;21078;-73
2022/12/12 04:44:00;;;;;;;22.13;11.90;;;;;;;;;;6244926;28;20053;-73
2022/12/12 04:47:03;;;;;;;22.33;12.65;;;;;;;;;;6243941;28;20053;-73
2022/12/12 04:50:07;;;;;;;20.67;11.38;;;;;;;;;;6245576;28;20076;-72
2022/12/12 04:53:12;;;;;;;22.83;11.73;;;;;;;;;;6244335;28;20328;-71
2022/12/12 04:56:17;;;;;;;21.92;12.02;;;;;;;;;;6246452;28;21347;-72
2022/12/12 04:59:18;;;;;;;23.83;11.73;;;;;;;;;;6244375;28;20045;-72
2022/12/12 05:02:25;;;;;;;23.55;12.20;;;;;;;;;;6244379;28;20056;-71
2022/12/12 05:05:30;;;;;;;19.63;11.50;;;;;;;;;;6245497;28;20048;-71
2022/12/12 05:08:34;;;;;;;24.33;12.43;;;;;;;;;;6245225;28;20132;-72
2022/12/12 05:11:36;;;;;;;21.75;12.73;;;;;;;;;;6242258;28;20045;-72
2022/12/12 05:14:38;;;;;;;24.08;12.68;;;;;;;;;;6244787;28;20053;-72
2022/12/12 05:17:43;;;;;;;23.90;12.25;;;;;;;;;;6242213;28;20409;-71
2022/12/12 05:20:44;;;;;;;18.77;10.88;;;;;;;;;;6245043;28;20219;-71
2022/12/12 05:23:47;;;;;;;22.15;12.82;;;;;;;;;;6246554;28;20398;-72
2022/12/12 05:26:49;;;;;;;23.27;12.40;;;;;;;;;;6244128;28;20100;-71
2022/12/12 05:29:51;;;;;;;21.00;12.27;;;;;;;;;;6244654;28;20045;-72
2022/12/12 05:32:53;;;;;;;18.52;11.55;;;;;;;;;;6242715;28;20061;-71
2022/12/12 05:35:54;;;;;;;21.52;11.80;;;;;;;;;;6243450;28;20061;-74
2022/12/12 05:38:57;;;;;;;22.85;12.30;;;;;;;;;;6244932;28;20221;-71
2022/12/12 05:41:59;;;;;;;20.13;11.95;;;;;;;;;;6243324;28;20049;-71
2022/12/12 05:45:01;;;;;;;23.92;13.18;;;;;;;;;;6244408;28;20045;-71
2022/12/12 05:48:03;;;;;;;22.25;12.82;;;;;;;;;;6245559;28;20104;-71
2022/12/12 05:51:05;;;;;;;24.50;12.98;;;;;;;;;;6242137;28;20045;-71
2022/12/12 05:54:08;;;;;;;20.40;11.80;;;;;;;;;;6245148;28;20049;-72
2022/12/12 05:57:09;;;;;;;23.40;12.52;;;;;;;;;;6241565;28;20049;-71
2022/12/12 06:00:12;;;;;;;22.45;12.88;;;;;;;;;;6244014;28;20045;-74
2022/12/12 06:03:14;;;;;;;24.10;12.65;;;;;;;;;;6241636;28;20052;-73
2022/12/12 06:06:15;;;;;;;24.17;12.85;;;;;;;;;;6218464;28;20049;-73
2022/12/12 06:09:18;;;;;;;21.83;13.05;;;;;;;;;;6245221;28;20083;-72
2022/12/12 06:12:20;;;;;;;23.38;12.45;;;;;;;;;;6246118;28;20094;-72
2022/12/12 06:15:22;;;;;;;22.58;12.13;;;;;;;;;;6244450;28;20056;-71
2022/12/12 06:18:23;;;;;;;21.83;11.82;;;;;;;;;;6241038;28;20053;-71
2022/12/12 06:21:25;;;;;;;24.73;13.30;;;;;;;;;;6247009;28;20101;-71
2022/12/12 06:24:28;;;;;;;23.70;11.68;;;;;;;;;;6243856;28;20054;-71
2022/12/12 06:27:29;;;;;;;23.90;12.60;;;;;;;;;;6243023;28;20127;-71
2022/12/12 06:30:31;;;;;;;22.38;10.50;;;;;;;;;;6247567;28;20053;-71
2022/12/12 06:33:34;;;;;;;21.60;12.30;;;;;;;;;;6245148;28;20058;-71
2022/12/12 06:36:36;;;;;;;23.02;13.13;;;;;;;;;;6249717;28;20060;-73
2022/12/12 06:39:39;;;;;;;26.00;12.13;;;;;;;;;;6243640;28;20053;-72
2022/12/12 06:42:41;;;;;;;20.90;11.23;;;;;;;;;;6249029;28;20049;-71
2022/12/12 06:45:43;;;;;;;25.08;13.23;;;;;;;;;;6246639;28;20041;-73
2022/12/12 06:48:45;;;;;;;24.23;12.90;;;;;;;;;;6246367;28;20061;-72
2022/12/12 06:51:47;;;;;;;24.35;12.35;;;;;;;;;;6247675;28;20313;-71
2022/12/12 06:54:50;;;;;;;22.30;11.82;;;;;;;;;;6247648;28;20108;-71
2022/12/12 06:57:52;;;;;;;24.33;13.57;;;;;;;;;;6244945;28;20179;-73
2022/12/12 07:00:54;;;;;;;23.75;13.00;;;;;;;;;;6241078;28;20061;-75
2022/12/12 07:03:57;;;;;;;25.25;14.18;;;;;;;;;;6242617;28;20683;-74
2022/12/12 07:06:58;;;;;;;23.52;12.75;;;;;;;;;;6238910;28;20049;-74
2022/12/12 07:10:01;;;;;;;23.75;12.07;;;;;;;;;;6249081;28;20219;-75
2022/12/12 07:13:03;;;;;;;23.17;12.05;;;;;;;;;;6244712;28;20087;-72
2022/12/12 07:16:06;;;;;;;29.25;12.77;;;;;;;;;;6245496;28;20052;-73
2022/12/12 07:19:09;;;;;;;22.50;11.88;;;;;;;;;;6243568;28;20052;-75
2022/12/12 07:22:10;;;;;;;25.58;11.88;;;;;;;;;;6246452;28;20108;-73
2022/12/12 07:25:13;;;;;;;23.42;11.93;;;;;;;;;;6246820;28;20065;-75
2022/12/12 07:28:15;;;;;;;21.95;11.95;;;;;;;;;;6247983;28;22120;-75
2022/12/12 07:31:19;;;;;;;23.88;12.98;;;;;;;;;;6246499;28;20057;-74
2022/12/12 07:34:21;;;;;;;24.60;13.40;;;;;;;;;;6245933;28;20065;-75
2022/12/12 07:37:22;;;;;;;25.10;12.95;;;;;;;;;;6244681;28;20045;-75
2022/12/12 07:40:26;;;;;;;26.35;12.85;;;;;;;;;;6246237;28;20050;-74
2022/12/12 07:43:27;;;;;;;23.05;12.63;;;;;;;;;;6247336;28;20067;-75
2022/12/12 07:46:29;;;;;;;24.33;13.63;;;;;;;;;;6247405;28;20103;-74
2022/12/12 07:49:31;;;;;;;24.33;13.35;;;;;;;;;;6246023;28;20112;-74
2022/12/12 07:52:32;;;;;;;24.13;12.98;;;;;;;;;;6245531;28;20321;-74
2022/12/12 07:55:35;;;;;;;27.02;12.77;;;;;;;;;;6246900;28;20061;-75
2022/12/12 07:58:37;;;;;;;26.75;13.18;;;;;;;;;;6246890;28;20080;-74
2022/12/12 08:01:39;;;;;;;23.88;13.02;;;;;;;;;;6246802;28;20045;-74
2022/12/12 08:04:41;;;;;;;25.15;12.98;;;;;;;;;;6247298;28;20065;-72
2022/12/12 08:07:42;;;;;;;26.27;13.77;;;;;;;;;;6248144;28;20071;-72
2022/12/12 08:10:45;;;;;;;24.23;12.98;;;;;;;;;;6247049;28;20340;-72
2022/12/12 08:13:47;;;;;;;22.23;12.88;;;;;;;;;;6246216;28;20057;-73
2022/12/12 08:16:49;;;;;;;27.13;14.05;;;;;;;;;;6246647;28;20045;-74
2022/12/12 08:19:51;;;;;;;25.02;12.90;;;;;;;;;;6247185;28;20058;-74
2022/12/12 08:22:53;;;;;;;25.17;12.77;;;;;;;;;;6244545;28;20072;-75
2022/12/12 08:25:56;;;;;;;24.50;13.32;;;;;;;;;;6246208;28;20133;-74
2022/12/12 08:28:58;;;;;;;21.63;11.90;;;;;;;;;;6242755;28;20049;-74
2022/12/12 08:32:00;;;;;;;27.80;13.02;;;;;;;;;;6246903;28;20063;-74
2022/12/12 08:35:02;;;;;;;25.40;13.60;;;;;;;;;;6246799;28;20112;-75
2022/12/12 08:38:04;;;;;;;24.85;13.50;;;;;;;;;;6246318;28;20046;-74
2022/12/12 08:41:08;;;;;;;27.20;14.68;;;;;;;;;;6245496;28;20045;-71
2022/12/12 08:44:10;;;;;;;;;;;;;;;;;;6246867;28;20053;-75
2022/12/12 08:47:12;;;;;;;23.83;13.43;;;;;;;;;;6245878;28;19932;-75
2022/12/12 08:50:13;;;;;;;33.28;14.75;;;;;;;;;;6245464;28;20058;-75
2022/12/12 08:53:15;;;;;;;24.15;13.02;;;;;;;;;;6243041;28;20041;-75
2022/12/12 08:56:20;;;;;;;21.63;12.95;;;;;;;;;;6246935;28;20049;-74
2022/12/12 08:59:21;;;;;;;20.52;12.32;;;;;;;;;;6245579;28;20210;-74
2022/12/12 09:02:23;;;;;;;22.38;12.88;;;;;;;;;;6243583;28;20057;-74
2022/12/12 09:05:25;;;;;;;24.05;13.23;;;;;;;;;;6246902;28;20230;-74
2022/12/12 09:08:27;;;;;;;25.00;12.98;;;;;;;;;;6242957;28;20049;-74
2022/12/12 09:11:30;;;;;;;22.10;13.20;;;;;;;;;;6244923;28;20065;-74
2022/12/12 09:14:31;;;;;;;23.30;12.65;;;;;;;;;;6244023;28;20112;-74
2022/12/12 09:17:33;;;;;;;22.13;12.63;;;;;;;;;;6246342;28;20045;-74
2022/12/12 09:20:34;;;;;;;21.70;12.38;;;;;;;;;;6245254;28;20053;-72
2022/12/12 09:23:36;;;;;;;21.48;12.73;;;;;;;;;;6245858;28;20100;-74
2022/12/12 09:26:39;;;;;;;23.02;12.55;;;;;;;;;;6244870;28;20120;-74
2022/12/12 09:29:41;;;;;;;19.73;11.77;;;;;;;;;;6244283;28;20067;-74
2022/12/12 09:32:43;;;;;;;19.35;11.20;;;;;;;;;;6243632;28;20060;-73
2022/12/12 09:35:45;;;;;;;19.20;11.85;;;;;;;;;;6246041;28;20053;-73
2022/12/12 09:38:47;;;;;;;20.08;11.60;;;;;;;;;;6244665;28;20373;-73
2022/12/12 09:41:50;;;;;;;20.73;13.30;;;;;;;;;;6245823;28;20984;-73
2022/12/12 09:44:54;;;;;;;18.92;11.85;;;;;;;;;;6250935;28;20056;-73
2022/12/12 09:47:58;;;;;;;14.20;8.98;;;;;;;;;;6252008;28;20739;-76
2022/12/12 09:51:00;;;;;;;;;;;;;;;;;;6248407;28;20061;-74
2022/12/12 09:54:02;;;;;;;19.13;11.32;;;;;;;;;;6248449;28;19918;-74
2022/12/12 09:57:14;;;;;;;22.05;11.73;;;;;;;;;;6248215;28;20056;-74
2022/12/12 10:00:16;;;;;;;18.83;10.70;;;;;;;;;;6250074;28;20053;-74
2022/12/12 10:03:23;;;;;;;22.17;12.05;;;;;;;;;;6247651;28;20064;-76
2022/12/12 10:06:25;;;;;;;20.73;11.75;;;;;;;;;;6249408;28;20045;-76
2022/12/12 10:09:37;;;;;;;18.60;11.98;;;;;;;;;;6250468;28;20060;-76
2022/12/12 10:12:40;;;;;;;20.63;12.10;;;;;;;;;;6250098;28;20054;-76
2022/12/12 10:15:44;;;;;;;18.88;12.20;;;;;;;;;;6247777;28;20053;-74
2022/12/12 10:18:47;;;;;;;19.95;12.10;;;;;;;;;;6247204;28;20113;-76
2022/12/12 10:21:51;;;;;;;18.52;11.38;;;;;;;;;;6247190;28;20057;-76
2022/12/12 10:24:56;;;;;;;16.83;11.13;;;;;;;;;;6247209;28;20057;-74
2022/12/12 10:28:08;;;;;;;18.25;11.38;;;;;;;;;;6250301;28;20057;-76
2022/12/12 10:31:17;;;;;;;15.02;10.48;;;;;;;;;;6247856;28;20046;-76
2022/12/12 10:34:29;;;;;;;16.70;10.52;;;;;;;;;;6249545;28;20061;-76
2022/12/12 10:37:38;;;;;;;20.13;11.20;;;;;;;;;;6247835;28;20359;-76
2022/12/12 10:40:47;;;;;;;23.77;11.68;;;;;;;;;;6248767;28;20057;-76
2022/12/12 10:43:54;;;;;;;17.10;10.55;;;;;;;;;;6246443;28;21086;-76
2022/12/12 10:47:00;;;;;;;16.75;11.40;;;;;;;;;;6246817;28;20065;-76
2022/12/12 10:50:13;;;;;;;15.25;10.30;;;;;;;;;;6245978;28;20099;-76
2022/12/12 10:53:15;;;;;;;17.70;11.50;;;;;;;;;;6245483;28;20095;-76
2022/12/12 10:56:21;;;;;;;16.50;11.18;;;;;;;;;;6249095;28;20057;-76
2022/12/12 10:59:24;;;;;;;19.00;11.02;;;;;;;;;;6247084;28;20111;-76
2022/12/12 11:02:29;;;;;;;19.60;11.43;;;;;;;;;;6248065;28;20061;-76
2022/12/12 11:05:34;;;;;;;19.23;11.25;;;;;;;;;;6246500;28;20056;-76
2022/12/12 11:08:36;;;;;;;17.52;12.68;;;;;;;;;;6248876;28;20057;-76
2022/12/12 11:11:38;;;;;;;17.08;11.57;;;;;;;;;;6249055;28;20037;-76
2022/12/12 11:14:46;;;;;;;19.25;10.80;;;;;;;;;;6247069;28;20182;-77
2022/12/12 11:17:50;;;;;;;14.95;11.13;;;;;;;;;;6248860;28;20045;-76
2022/12/12 11:20:57;;;;;;;16.83;11.03;;;;;;;;;;6244040;28;20045;-77
2022/12/12 11:23:59;;;;;;;17.88;11.93;;;;;;;;;;6246677;28;20475;-77
2022/12/12 11:27:03;;;;;;;15.50;11.10;;;;;;;;;;6245730;28;20061;-76
2022/12/12 11:30:10;;;;;;;14.75;10.55;;;;;;;;;;6248380;28;20053;-76
2022/12/12 11:33:19;;;;;;;17.15;11.40;;;;;;;;;;6245552;28;20076;-76
2022/12/12 11:36:23;;;;;;;21.08;12.13;;;;;;;;;;6244749;28;20162;-76
2022/12/12 11:39:27;;;;;;;18.23;11.73;;;;;;;;;;6244756;28;20096;-76
2022/12/12 11:42:30;;;;;;;17.98;11.38;;;;;;;;;;6247780;28;20056;-77
2022/12/12 11:45:33;;;;;;;16.52;12.07;;;;;;;;;;6239393;28;20049;-76
2022/12/12 11:48:47;;;;;;;18.55;12.55;;;;;;;;;;6246415;28;20058;-76
2022/12/12 11:51:49;;;;;;;19.42;12.32;;;;;;;;;;6246061;28;20059;-76
2022/12/12 11:54:51;;;;;;;19.50;11.52;;;;;;;;;;6244670;28;20088;-76
2022/12/12 11:58:02;;;;;;;16.75;11.18;;;;;;;;;;6246044;28;20045;-75
2022/12/12 12:01:09;;;;;;;20.65;12.40;;;;;;;;;;6246028;28;20053;-75
2022/12/12 12:04:31;;;;;;;18.95;11.85;;;;;;;;;;6244381;28;20057;-75
2022/12/12 12:07:45;;;;;;;17.85;11.32;;;;;;;;;;6245362;28;20384;-75
2022/12/12 12:10:50;;;;;;;;;;;;;;;;;;6249086;28;20049;-75
2022/12/12 12:14:00;;;;;;;;;;;;;;;;;;6245568;28;19933;-76
2022/12/12 12:17:09;;;;;;;17.90;12.23;;;;;;;;;;6246115;28;20054;-75
2022/12/12 12:20:17;;;;;;;18.17;11.93;;;;;;;;;;6247531;28;20045;-75
2022/12/12 12:23:24;;;;;;;20.60;12.38;;;;;;;;;;6246809;28;20283;-76
2022/12/12 12:26:33;;;;;;;20.52;12.55;;;;;;;;;;6245507;28;20183;-75
2022/12/12 12:29:44;;;;;;;19.05;11.88;;;;;;;;;;6246724;28;20045;-75
2022/12/12 12:33:09;;;;;;;18.42;11.60;;;;;;;;;;6244633;28;20092;-75
2022/12/12 12:36:15;;;;;;;59.35;30.50;;;;;;;;;;6231005;28;20094;-75
2022/12/12 12:39:27;;;;;;;70.78;34.22;;;;;;;;;;6244570;28;20065;-74
2022/12/12 12:42:42;;;;;;;31.60;19.33;;;;;;;;;;6244176;28;20158;-75
2022/12/12 12:45:48;;;;;;;20.40;12.40;;;;;;;;;;6246420;28;20218;-76
2022/12/12 12:48:54;;;;;;;20.02;12.90;;;;;;;;;;6244322;28;20057;-75
2022/12/12 12:51:59;;;;;;;20.30;12.35;;;;;;;;;;6247103;28;20078;-75
2022/12/12 12:55:01;;;;;;;22.67;13.52;;;;;;;;;;6242572;28;20057;-75
2022/12/12 12:58:04;;;;;;;18.15;13.00;;;;;;;;;;6245338;28;20050;-76
2022/12/12 13:01:12;;;;;;;20.58;12.50;;;;;;;;;;6244861;28;20225;-76
2022/12/12 13:04:18;;;;;;;19.70;12.65;;;;;;;;;;6246262;28;20045;-75
2022/12/12 13:07:27;;;;;;;19.52;13.00;;;;;;;;;;6245281;28;20099;-75
2022/12/12 13:10:30;;;;;;;21.15;12.73;;;;;;;;;;6244754;28;20080;-75
2022/12/12 13:13:34;;;;;;;21.55;12.20;;;;;;;;;;6245635;28;20256;-76
2022/12/12 13:16:36;;;;;;;19.73;12.95;;;;;;;;;;6245431;28;20053;-75
2022/12/12 13:19:41;;;;;;;18.73;12.77;;;;;;;;;;6243495;28;20053;-76
2022/12/12 13:22:50;;;;;;;18.83;12.05;;;;;;;;;;6243870;28;20054;-76
2022/12/12 13:25:56;;;;;;;20.70;13.02;;;;;;;;;;6244469;28;20201;-75
2022/12/12 13:29:02;;;;;;;18.20;12.27;;;;;;;;;;6244285;28;20313;-75
2022/12/12 13:32:33;;;;;;;19.08;13.20;;;;;;;;;;6247831;28;20053;-76
2022/12/12 13:35:39;;;;;;;19.70;12.85;;;;;;;;;;6221089;28;20061;-75
2022/12/12 13:38:47;;;;;;;21.73;12.98;;;;;;;;;;6242837;28;20057;-76
2022/12/12 13:41:57;;;;;;;21.58;13.20;;;;;;;;;;6243755;28;20049;-75
2022/12/12 13:45:35;;;;;;;20.60;12.50;;;;;;;;;;6244289;28;20073;-74
2022/12/12 13:48:43;;;;;;;26.48;12.95;;;;;;;;;;6244863;28;20045;-74
2022/12/12 13:51:46;;;;;;;20.27;12.50;;;;;;;;;;6246591;28;20142;-75
2022/12/12 13:54:48;;;;;;;22.10;13.45;;;;;;;;;;6244519;28;20344;-75
2022/12/12 13:58:34;;;;;;;23.27;14.77;;;;;;;;;;6246653;28;20045;-77
2022/12/12 14:01:39;;;;;;;82.43;49.30;;;;;;;;;;6123764;29;20260;-75
2022/12/12 14:04:42;;;;;;;21.55;14.05;;;;;;;;;;6122358;29;20234;-75
2022/12/12 14:07:50;;;;;;;20.65;12.07;;;;;;;;;;6121407;29;20055;-76
2022/12/12 14:10:55;;;;;;;20.02;12.65;;;;;;;;;;6120400;29;20060;-77
2022/12/12 14:14:19;;;;;;;23.00;13.10;;;;;;;;;;6120899;29;20451;-77
2022/12/12 14:17:22;;;;;;;19.83;11.75;;;;;;;;;;6120443;29;20119;-77
2022/12/12 14:20:34;;;;;;;19.87;12.80;;;;;;;;;;6122773;29;20107;-77
2022/12/12 14:23:39;;;;;;;18.75;13.18;;;;;;;;;;6118980;29;20700;-77
2022/12/12 14:26:49;;;;;;;18.80;12.30;;;;;;;;;;6118435;29;20047;-77
2022/12/12 14:29:51;;;;;;;22.67;12.38;;;;;;;;;;6129135;29;20107;-75
2022/12/12 14:32:57;;;;;;;21.08;12.73;;;;;;;;;;6127329;29;20059;-77
2022/12/12 14:36:03;;;;;;;18.73;11.85;;;;;;;;;;6216088;28;20308;-77
2022/12/12 14:39:14;;;;;;;21.65;13.15;;;;;;;;;;6245770;28;20076;-77
2022/12/12 14:42:23;;;;;;;19.58;11.45;;;;;;;;;;6248028;28;20122;-76
2022/12/12 14:45:30;;;;;;;19.58;12.00;;;;;;;;;;6239776;28;20475;-76
2022/12/12 14:48:33;;;;;;;21.92;12.95;;;;;;;;;;6249353;28;20060;-76
2022/12/12 14:51:36;;;;;;;18.23;11.55;;;;;;;;;;6248702;28;20203;-75
2022/12/12 14:54:39;;;;;;;18.98;11.77;;;;;;;;;;6248578;28;20057;-76
2022/12/12 14:57:41;;;;;;;19.55;11.40;;;;;;;;;;6248230;28;20056;-75
2022/12/12 15:00:47;;;;;;;18.80;11.45;;;;;;;;;;6247803;28;20064;-76
2022/12/12 15:03:49;;;;;;;21.40;11.30;;;;;;;;;;6246163;28;20057;-76
2022/12/12 15:06:52;;;;;;;18.67;10.68;;;;;;;;;;6249085;28;20061;-77
2022/12/12 15:09:56;;;;;;;18.23;11.02;;;;;;;;;;6245768;28;20041;-76
2022/12/12 15:12:57;;;;;;;19.20;10.82;;;;;;;;;;6247683;28;20054;-76
2022/12/12 15:15:59;;;;;;;20.80;10.75;;;;;;;;;;6246155;28;20081;-76
2022/12/12 15:19:01;;;;;;;18.67;11.05;;;;;;;;;;6248613;28;20317;-74
2022/12/12 15:22:04;;;;;;;18.48;11.30;;;;;;;;;;6246451;28;20710;-77
2022/12/12 15:25:16;;;;;;;18.83;11.73;;;;;;;;;;6247064;28;20049;-76
2022/12/12 15:28:20;;;;;;;17.38;10.50;;;;;;;;;;6244229;28;20053;-76
2022/12/12 15:31:22;;;;;;;20.55;10.95;;;;;;;;;;6247350;28;20064;-76
2022/12/12 15:34:33;;;;;;;23.15;12.60;;;;;;;;;;6246935;28;20072;-76
2022/12/12 15:37:36;;;;;;;19.77;11.60;;;;;;;;;;6244560;28;20288;-74
2022/12/12 15:40:40;;;;;;;19.10;11.05;;;;;;;;;;6243520;28;20104;-76
2022/12/12 15:43:43;;;;;;;21.90;11.93;;;;;;;;;;6246771;28;20360;-73
2022/12/12 15:46:46;;;;;;;26.63;12.47;;;;;;;;;;6247498;28;20058;-73
2022/12/12 15:49:48;;;;;;;32.03;17.40;;;;;;;;;;6245975;28;20045;-73
2022/12/12 15:52:59;;;;;;;38.47;18.48;;;;;;;;;;6246686;28;20061;-73
2022/12/12 15:56:05;;;;;;;25.35;13.13;;;;;;;;;;6248059;28;20049;-74
2022/12/12 15:59:15;;;;;;;19.90;11.43;;;;;;;;;;6247325;28;20050;-77
2022/12/12 16:02:25;;;;;;;21.48;12.65;;;;;;;;;;6245596;28;20053;-76
2022/12/12 16:05:30;;;;;;;22.90;12.73;;;;;;;;;;6244989;28;20045;-77
2022/12/12 16:08:38;;;;;;;20.92;11.23;;;;;;;;;;6244857;28;20325;-76
2022/12/12 16:11:44;;;;;;;23.35;13.05;;;;;;;;;;6244790;28;20237;-77
2022/12/12 16:14:45;;;;;;;20.90;11.60;;;;;;;;;;6243531;28;20068;-76
2022/12/12 16:17:58;;;;;;;21.15;11.85;;;;;;;;;;6240130;28;20049;-75
2022/12/12 16:21:01;;;;;;;23.10;12.40;;;;;;;;;;6240258;28;20069;-76
2022/12/12 16:24:11;;;;;;;26.98;12.60;;;;;;;;;;6243254;28;20053;-76
2022/12/12 16:27:14;;;;;;;21.10;11.57;;;;;;;;;;6238402;28;20048;-75
2022/12/12 16:30:16;;;;;;;21.87;12.73;;;;;;;;;;6245051;28;20072;-76
2022/12/12 16:33:25;;;;;;;20.20;12.30;;;;;;;;;;6242721;28;20241;-76
2022/12/12 16:36:26;;;;;;;20.45;11.60;;;;;;;;;;6245357;28;20338;-76
2022/12/12 16:39:28;;;;;;;21.13;12.13;;;;;;;;;;6244549;28;20083;-77
2022/12/12 16:42:31;;;;;;;23.70;12.80;;;;;;;;;;6242251;28;20092;-76
2022/12/12 16:45:33;;;;;;;21.58;12.23;;;;;;;;;;6245315;28;20076;-76
2022/12/12 16:48:36;;;;;;;24.23;12.93;;;;;;;;;;6243485;28;20057;-76
2022/12/12 16:51:40;;;;;;;23.98;12.52;;;;;;;;;;6243495;28;20087;-76
2022/12/12 16:54:42;;;;;;;23.25;13.20;;;;;;;;;;6246100;28;20054;-76
2022/12/12 16:57:46;;;;;;;22.77;13.13;;;;;;;;;;6245532;28;20045;-76
2022/12/12 17:00:48;;;;;;;22.90;12.97;;;;;;;;;;6243715;28;20041;-76
2022/12/12 17:03:50;;;;;;;25.90;14.13;;;;;;;;;;6244957;28;20467;-76
2022/12/12 17:06:51;;;;;;;26.70;13.60;;;;;;;;;;6248083;28;20232;-76
2022/12/12 17:09:53;;;;;;;22.33;13.82;;;;;;;;;;6244817;28;20053;-76
2022/12/12 17:12:57;;;;;;;24.05;13.05;;;;;;;;;;6244022;28;20786;-76
2022/12/12 17:15:58;;;;;;;23.35;13.18;;;;;;;;;;6245206;28;22708;-76
2022/12/12 17:19:00;;;;;;;21.65;13.13;;;;;;;;;;6244630;28;20057;-76
2022/12/12 17:22:02;;;;;;;22.58;13.07;;;;;;;;;;6244410;28;20053;-77
2022/12/12 17:25:04;;;;;;;20.60;12.57;;;;;;;;;;6242600;28;20072;-76
2022/12/12 17:28:08;;;;;;;22.48;12.73;;;;;;;;;;6246375;28;20053;-77
2022/12/12 17:31:09;;;;;;;22.42;13.02;;;;;;;;;;6242971;28;20057;-77
2022/12/12 17:34:11;;;;;;;26.30;14.82;;;;;;;;;;6246210;28;20053;-75
2022/12/12 17:37:13;;;;;;;27.63;15.23;;;;;;;;;;6245852;28;20046;-75
2022/12/12 17:40:15;;;;;;;30.00;16.00;;;;;;;;;;6246562;28;20233;-75
2022/12/12 17:43:18;;;;;;;32.05;17.58;;;;;;;;;;6245298;28;20107;-75
2022/12/12 17:46:20;;;;;;;30.95;17.35;;;;;;;;;;6243954;28;20392;-76
2022/12/12 17:49:22;;;;;;;35.95;19.38;;;;;;;;;;6245104;28;20064;-75
2022/12/12 17:52:23;;;;;;;34.72;18.83;;;;;;;;;;6243748;28;20055;-75
2022/12/12 17:55:25;;;;;;;35.53;18.95;;;;;;;;;;6244328;28;20053;-75
2022/12/12 17:58:31;;;;;;;37.05;19.63;;;;;;;;;;6247014;28;20050;-75
2022/12/12 18:01:33;;;;;;;32.85;19.13;;;;;;;;;;6244426;28;20148;-75
2022/12/12 18:04:38;;;;;;;37.90;19.17;;;;;;;;;;6249896;28;20054;-75
2022/12/12 18:07:39;;;;;;;36.60;19.55;;;;;;;;;;6244509;28;20049;-75
2022/12/12 18:10:41;;;;;;;40.67;19.95;;;;;;;;;;6249751;28;20064;-75
2022/12/12 18:13:47;;;;;;;36.05;19.65;;;;;;;;;;6244047;28;20172;-75
2022/12/12 18:16:50;;;;;;;34.75;18.40;;;;;;;;;;6248516;28;20045;-75